sensor_id;sensor_type;location;lat;lon;timestamp;P1;durP1;ratioP1;P2;durP2;ratioP2
69981;SDS011;57319;56.274;43.980;2023-06-19T00:00:31;2.30;;;2.10;;
69981;SDS011;57319;56.274;43.980;2023-06-19T00:02:57;3.30;;;2.08;;
69981;SDS011;57319;56.274;43.980;2023-06-19T00:05:23;2.13;;;2.08;;
69981;SDS011;57319;56.274;43.980;2023-06-19T00:07:50;3.00;;;2.20;;
69981;SDS011;57319;56.274;43.980;2023-06-19T00:10:16;8.27;;;2.55;;
69981;SDS011;57319;56.274;43.980;2023-06-19T00:12:41;7.88;;;2.97;;
69981;SDS011;57319;56.274;43.980;2023-06-19T00:15:07;6.97;;;2.40;;
69981;SDS011;57319;56.274;43.980;2023-06-19T00:17:35;4.78;;;2.78;;
69981;SDS011;57319;56.274;43.980;2023-06-19T00:20:03;2.28;;;2.17;;
69981;SDS011;57319;56.274;43.980;2023-06-19T00:22:31;13.90;;;3.00;;
69981;SDS011;57319;56.274;43.980;2023-06-19T00:24:57;2.60;;;2.30;;
69981;SDS011;57319;56.274;43.980;2023-06-19T00:27:23;4.85;;;2.40;;
69981;SDS011;57319;56.274;43.980;2023-06-19T00:29:52;4.35;;;2.55;;
69981;SDS011;57319;56.274;43.980;2023-06-19T00:32:18;2.88;;;2.50;;
69981;SDS011;57319;56.274;43.980;2023-06-19T00:34:44;5.35;;;2.55;;
69981;SDS011;57319;56.274;43.980;2023-06-19T00:37:09;3.53;;;2.40;;
69981;SDS011;57319;56.274;43.980;2023-06-19T00:39:38;4.35;;;2.50;;
69981;SDS011;57319;56.274;43.980;2023-06-19T00:42:05;3.22;;;2.78;;
69981;SDS011;57319;56.274;43.980;2023-06-19T00:44:31;3.75;;;2.20;;
69981;SDS011;57319;56.274;43.980;2023-06-19T00:47:00;4.82;;;2.97;;
69981;SDS011;57319;56.274;43.980;2023-06-19T00:49:29;4.65;;;2.70;;
69981;SDS011;57319;56.274;43.980;2023-06-19T00:51:55;4.63;;;2.90;;
69981;SDS011;57319;56.274;43.980;2023-06-19T00:54:22;4.45;;;2.60;;
69981;SDS011;57319;56.274;43.980;2023-06-19T00:56:49;10.60;;;2.83;;
69981;SDS011;57319;56.274;43.980;2023-06-19T00:59:15;2.85;;;2.20;;
69981;SDS011;57319;56.274;43.980;2023-06-19T01:01:45;2.42;;;2.22;;
69981;SDS011;57319;56.274;43.980;2023-06-19T01:04:12;2.90;;;2.70;;
69981;SDS011;57319;56.274;43.980;2023-06-19T01:06:53;5.00;;;2.17;;
69981;SDS011;57319;56.274;43.980;2023-06-19T01:09:28;10.48;;;2.20;;
69981;SDS011;57319;56.274;43.980;2023-06-19T01:12:02;7.43;;;2.33;;
69981;SDS011;57319;56.274;43.980;2023-06-19T01:17:08;1.75;;;1.67;;
69981;SDS011;57319;56.274;43.980;2023-06-19T01:19:35;2.38;;;1.95;;
69981;SDS011;57319;56.274;43.980;2023-06-19T01:22:01;3.67;;;2.10;;
69981;SDS011;57319;56.274;43.980;2023-06-19T01:24:29;2.70;;;2.08;;
69981;SDS011;57319;56.274;43.980;2023-06-19T01:26:54;1.75;;;1.73;;
69981;SDS011;57319;56.274;43.980;2023-06-19T01:29:20;2.15;;;2.05;;
69981;SDS011;57319;56.274;43.980;2023-06-19T01:34:12;2.70;;;1.70;;
69981;SDS011;57319;56.274;43.980;2023-06-19T01:36:42;1.60;;;1.50;;
69981;SDS011;57319;56.274;43.980;2023-06-19T01:39:08;1.75;;;1.65;;
69981;SDS011;57319;56.274;43.980;2023-06-19T01:41:36;8.05;;;1.65;;
69981;SDS011;57319;56.274;43.980;2023-06-19T01:44:04;16.35;;;1.90;;
69981;SDS011;57319;56.274;43.980;2023-06-19T01:46:31;6.63;;;1.75;;
69981;SDS011;57319;56.274;43.980;2023-06-19T01:48:57;1.67;;;1.58;;
69981;SDS011;57319;56.274;43.980;2023-06-19T01:51:24;4.30;;;1.80;;
69981;SDS011;57319;56.274;43.980;2023-06-19T01:53:50;1.50;;;1.50;;
69981;SDS011;57319;56.274;43.980;2023-06-19T01:56:15;1.98;;;1.80;;
69981;SDS011;57319;56.274;43.980;2023-06-19T01:58:41;7.22;;;1.98;;
69981;SDS011;57319;56.274;43.980;2023-06-19T02:01:07;6.28;;;2.08;;
69981;SDS011;57319;56.274;43.980;2023-06-19T02:03:32;2.20;;;1.60;;
69981;SDS011;57319;56.274;43.980;2023-06-19T02:05:58;3.40;;;1.77;;
69981;SDS011;57319;56.274;43.980;2023-06-19T02:08:24;6.82;;;2.80;;
69981;SDS011;57319;56.274;43.980;2023-06-19T02:10:49;6.40;;;3.80;;
69981;SDS011;57319;56.274;43.980;2023-06-19T02:13:15;12.23;;;4.53;;
69981;SDS011;57319;56.274;43.980;2023-06-19T02:15:41;12.07;;;4.15;;
69981;SDS011;57319;56.274;43.980;2023-06-19T02:18:07;10.85;;;4.60;;
69981;SDS011;57319;56.274;43.980;2023-06-19T02:20:33;35.17;;;4.45;;
69981;SDS011;57319;56.274;43.980;2023-06-19T02:22:59;14.48;;;4.70;;
69981;SDS011;57319;56.274;43.980;2023-06-19T02:25:25;8.95;;;4.97;;
69981;SDS011;57319;56.274;43.980;2023-06-19T02:27:50;10.90;;;4.13;;
69981;SDS011;57319;56.274;43.980;2023-06-19T02:30:16;13.88;;;4.68;;
69981;SDS011;57319;56.274;43.980;2023-06-19T02:32:42;18.35;;;4.15;;
69981;SDS011;57319;56.274;43.980;2023-06-19T02:35:09;16.13;;;4.50;;
69981;SDS011;57319;56.274;43.980;2023-06-19T02:37:36;17.63;;;4.80;;
69981;SDS011;57319;56.274;43.980;2023-06-19T02:40:03;7.75;;;4.10;;
69981;SDS011;57319;56.274;43.980;2023-06-19T02:42:30;6.88;;;4.07;;
69981;SDS011;57319;56.274;43.980;2023-06-19T02:44:56;11.60;;;4.78;;
69981;SDS011;57319;56.274;43.980;2023-06-19T02:47:32;8.88;;;3.95;;
69981;SDS011;57319;56.274;43.980;2023-06-19T02:49:58;10.35;;;4.45;;
69981;SDS011;57319;56.274;43.980;2023-06-19T02:52:26;12.65;;;4.57;;
69981;SDS011;57319;56.274;43.980;2023-06-19T02:54:52;20.05;;;5.35;;
69981;SDS011;57319;56.274;43.980;2023-06-19T02:57:18;16.92;;;4.65;;
69981;SDS011;57319;56.274;43.980;2023-06-19T02:59:44;10.25;;;4.25;;
69981;SDS011;57319;56.274;43.980;2023-06-19T03:02:11;19.75;;;4.65;;
69981;SDS011;57319;56.274;43.980;2023-06-19T03:04:36;17.67;;;4.68;;
69981;SDS011;57319;56.274;43.980;2023-06-19T03:07:02;12.77;;;3.20;;
69981;SDS011;57319;56.274;43.980;2023-06-19T03:09:28;3.03;;;2.25;;
69981;SDS011;57319;56.274;43.980;2023-06-19T03:11:54;1.85;;;1.75;;
69981;SDS011;57319;56.274;43.980;2023-06-19T03:14:20;1.67;;;1.55;;
69981;SDS011;57319;56.274;43.980;2023-06-19T03:16:46;3.13;;;2.25;;
69981;SDS011;57319;56.274;43.980;2023-06-19T03:19:12;1.50;;;1.40;;
69981;SDS011;57319;56.274;43.980;2023-06-19T03:21:38;3.95;;;2.00;;
69981;SDS011;57319;56.274;43.980;2023-06-19T03:24:04;2.78;;;2.00;;
69981;SDS011;57319;56.274;43.980;2023-06-19T03:26:29;3.40;;;1.65;;
69981;SDS011;57319;56.274;43.980;2023-06-19T03:28:55;1.85;;;1.63;;
69981;SDS011;57319;56.274;43.980;2023-06-19T03:31:21;2.60;;;1.75;;
69981;SDS011;57319;56.274;43.980;2023-06-19T03:33:46;7.00;;;2.13;;
69981;SDS011;57319;56.274;43.980;2023-06-19T03:36:12;2.80;;;1.30;;
69981;SDS011;57319;56.274;43.980;2023-06-19T03:38:38;2.17;;;2.08;;
69981;SDS011;57319;56.274;43.980;2023-06-19T03:41:03;6.22;;;1.95;;
69981;SDS011;57319;56.274;43.980;2023-06-19T03:43:29;3.33;;;1.90;;
69981;SDS011;57319;56.274;43.980;2023-06-19T03:45:55;6.78;;;2.00;;
69981;SDS011;57319;56.274;43.980;2023-06-19T03:48:21;2.38;;;1.67;;
69981;SDS011;57319;56.274;43.980;2023-06-19T03:50:47;5.05;;;1.73;;
69981;SDS011;57319;56.274;43.980;2023-06-19T03:53:12;3.63;;;1.60;;
69981;SDS011;57319;56.274;43.980;2023-06-19T03:55:38;30.13;;;1.90;;
69981;SDS011;57319;56.274;43.980;2023-06-19T03:58:04;2.15;;;1.60;;
69981;SDS011;57319;56.274;43.980;2023-06-19T04:00:31;8.60;;;2.20;;
69981;SDS011;57319;56.274;43.980;2023-06-19T04:02:56;2.40;;;1.60;;
69981;SDS011;57319;56.274;43.980;2023-06-19T04:05:22;6.95;;;1.50;;
69981;SDS011;57319;56.274;43.980;2023-06-19T04:07:48;1.80;;;1.70;;
69981;SDS011;57319;56.274;43.980;2023-06-19T04:10:14;1.80;;;1.70;;
69981;SDS011;57319;56.274;43.980;2023-06-19T04:12:40;4.95;;;1.58;;
69981;SDS011;57319;56.274;43.980;2023-06-19T04:15:06;2.25;;;1.48;;
69981;SDS011;57319;56.274;43.980;2023-06-19T04:17:33;6.38;;;1.45;;
69981;SDS011;57319;56.274;43.980;2023-06-19T04:19:58;6.40;;;1.85;;
69981;SDS011;57319;56.274;43.980;2023-06-19T04:22:24;3.97;;;1.40;;
69981;SDS011;57319;56.274;43.980;2023-06-19T04:24:50;10.45;;;1.70;;
69981;SDS011;57319;56.274;43.980;2023-06-19T04:27:15;2.65;;;1.58;;
69981;SDS011;57319;56.274;43.980;2023-06-19T04:29:41;8.32;;;1.45;;
69981;SDS011;57319;56.274;43.980;2023-06-19T04:32:07;5.82;;;1.40;;
69981;SDS011;57319;56.274;43.980;2023-06-19T04:34:40;6.65;;;1.50;;
69981;SDS011;57319;56.274;43.980;2023-06-19T04:39:37;1.70;;;1.17;;
69981;SDS011;57319;56.274;43.980;2023-06-19T04:42:03;3.70;;;1.50;;
69981;SDS011;57319;56.274;43.980;2023-06-19T04:44:29;2.10;;;1.00;;
69981;SDS011;57319;56.274;43.980;2023-06-19T04:46:59;2.13;;;1.52;;
69981;SDS011;57319;56.274;43.980;2023-06-19T04:49:28;4.22;;;1.10;;
69981;SDS011;57319;56.274;43.980;2023-06-19T04:51:55;1.13;;;1.08;;
69981;SDS011;57319;56.274;43.980;2023-06-19T04:54:22;12.52;;;1.48;;
69981;SDS011;57319;56.274;43.980;2023-06-19T04:56:48;2.17;;;1.00;;
69981;SDS011;57319;56.274;43.980;2023-06-19T04:59:14;2.03;;;1.33;;
69981;SDS011;57319;56.274;43.980;2023-06-19T05:01:43;2.95;;;1.10;;
69981;SDS011;57319;56.274;43.980;2023-06-19T05:04:10;8.23;;;1.00;;
69981;SDS011;57319;56.274;43.980;2023-06-19T05:06:38;6.22;;;1.30;;
69981;SDS011;57319;56.274;43.980;2023-06-19T05:09:05;2.95;;;1.20;;
69981;SDS011;57319;56.274;43.980;2023-06-19T05:11:31;1.48;;;1.38;;
69981;SDS011;57319;56.274;43.980;2023-06-19T05:13:58;2.85;;;1.50;;
69981;SDS011;57319;56.274;43.980;2023-06-19T05:16:23;1.17;;;1.00;;
69981;SDS011;57319;56.274;43.980;2023-06-19T05:18:50;10.93;;;1.10;;
69981;SDS011;57319;56.274;43.980;2023-06-19T05:21:16;1.10;;;1.10;;
69981;SDS011;57319;56.274;43.980;2023-06-19T05:23:42;4.45;;;1.13;;
69981;SDS011;57319;56.274;43.980;2023-06-19T05:26:08;8.43;;;1.50;;
69981;SDS011;57319;56.274;43.980;2023-06-19T05:28:34;5.28;;;1.27;;
69981;SDS011;57319;56.274;43.980;2023-06-19T05:30:59;1.35;;;1.20;;
69981;SDS011;57319;56.274;43.980;2023-06-19T05:33:25;2.85;;;1.48;;
69981;SDS011;57319;56.274;43.980;2023-06-19T05:35:52;5.97;;;1.38;;
69981;SDS011;57319;56.274;43.980;2023-06-19T05:38:20;1.95;;;1.33;;
69981;SDS011;57319;56.274;43.980;2023-06-19T05:40:46;9.85;;;1.50;;
69981;SDS011;57319;56.274;43.980;2023-06-19T05:43:12;11.13;;;1.67;;
69981;SDS011;57319;56.274;43.980;2023-06-19T05:45:38;3.33;;;1.30;;
69981;SDS011;57319;56.274;43.980;2023-06-19T05:48:04;2.67;;;1.30;;
69981;SDS011;57319;56.274;43.980;2023-06-19T05:50:29;2.80;;;1.27;;
69981;SDS011;57319;56.274;43.980;2023-06-19T05:52:56;1.50;;;1.50;;
69981;SDS011;57319;56.274;43.980;2023-06-19T05:55:22;7.85;;;1.23;;
69981;SDS011;57319;56.274;43.980;2023-06-19T05:57:50;20.55;;;1.52;;
69981;SDS011;57319;56.274;43.980;2023-06-19T06:00:16;1.23;;;1.05;;
69981;SDS011;57319;56.274;43.980;2023-06-19T06:02:42;8.20;;;0.98;;
69981;SDS011;57319;56.274;43.980;2023-06-19T06:05:08;6.57;;;1.63;;
69981;SDS011;57319;56.274;43.980;2023-06-19T06:07:35;1.50;;;1.20;;
69981;SDS011;57319;56.274;43.980;2023-06-19T06:10:01;1.40;;;0.80;;
69981;SDS011;57319;56.274;43.980;2023-06-19T06:12:30;2.03;;;1.63;;
69981;SDS011;57319;56.274;43.980;2023-06-19T06:15:01;2.60;;;1.20;;
69981;SDS011;57319;56.274;43.980;2023-06-19T06:17:31;3.33;;;0.85;;
69981;SDS011;57319;56.274;43.980;2023-06-19T06:19:57;1.48;;;1.02;;
69981;SDS011;57319;56.274;43.980;2023-06-19T06:22:23;2.83;;;1.00;;
69981;SDS011;57319;56.274;43.980;2023-06-19T06:24:49;0.90;;;0.90;;
69981;SDS011;57319;56.274;43.980;2023-06-19T06:27:15;4.90;;;1.00;;
69981;SDS011;57319;56.274;43.980;2023-06-19T06:29:41;4.10;;;0.93;;
69981;SDS011;57319;56.274;43.980;2023-06-19T06:32:07;1.30;;;1.30;;
69981;SDS011;57319;56.274;43.980;2023-06-19T06:34:33;7.40;;;1.55;;
69981;SDS011;57319;56.274;43.980;2023-06-19T06:37:02;1.95;;;0.95;;
69981;SDS011;57319;56.274;43.980;2023-06-19T06:39:29;3.20;;;1.17;;
69981;SDS011;57319;56.274;43.980;2023-06-19T06:41:55;1.27;;;1.17;;
69981;SDS011;57319;56.274;43.980;2023-06-19T06:44:20;2.20;;;1.10;;
69981;SDS011;57319;56.274;43.980;2023-06-19T06:46:46;3.25;;;0.90;;
69981;SDS011;57319;56.274;43.980;2023-06-19T06:49:11;2.30;;;0.98;;
69981;SDS011;57319;56.274;43.980;2023-06-19T06:51:37;1.10;;;1.10;;
69981;SDS011;57319;56.274;43.980;2023-06-19T06:54:03;1.13;;;1.02;;
69981;SDS011;57319;56.274;43.980;2023-06-19T06:56:29;6.30;;;1.00;;
69981;SDS011;57319;56.274;43.980;2023-06-19T06:58:55;9.27;;;1.02;;
69981;SDS011;57319;56.274;43.980;2023-06-19T07:01:20;1.25;;;1.08;;
69981;SDS011;57319;56.274;43.980;2023-06-19T07:03:46;5.10;;;1.27;;
69981;SDS011;57319;56.274;43.980;2023-06-19T07:06:12;2.38;;;0.93;;
69981;SDS011;57319;56.274;43.980;2023-06-19T07:08:37;1.13;;;1.08;;
69981;SDS011;57319;56.274;43.980;2023-06-19T07:11:06;6.72;;;0.93;;
69981;SDS011;57319;56.274;43.980;2023-06-19T07:13:32;1.17;;;1.00;;
69981;SDS011;57319;56.274;43.980;2023-06-19T07:15:58;4.25;;;1.00;;
69981;SDS011;57319;56.274;43.980;2023-06-19T07:18:25;1.10;;;1.10;;
69981;SDS011;57319;56.274;43.980;2023-06-19T07:20:50;1.15;;;1.15;;
69981;SDS011;57319;56.274;43.980;2023-06-19T07:23:16;3.05;;;1.17;;
69981;SDS011;57319;56.274;43.980;2023-06-19T07:25:42;9.02;;;1.25;;
69981;SDS011;57319;56.274;43.980;2023-06-19T07:28:08;14.23;;;1.17;;
69981;SDS011;57319;56.274;43.980;2023-06-19T07:30:34;4.70;;;1.33;;
69981;SDS011;57319;56.274;43.980;2023-06-19T07:32:59;7.82;;;1.20;;
69981;SDS011;57319;56.274;43.980;2023-06-19T07:35:25;5.57;;;1.42;;
69981;SDS011;57319;56.274;43.980;2023-06-19T07:37:51;2.53;;;1.20;;
69981;SDS011;57319;56.274;43.980;2023-06-19T07:40:16;2.40;;;1.10;;
69981;SDS011;57319;56.274;43.980;2023-06-19T07:42:42;4.05;;;1.25;;
69981;SDS011;57319;56.274;43.980;2023-06-19T07:45:08;8.23;;;1.20;;
69981;SDS011;57319;56.274;43.980;2023-06-19T07:47:34;7.90;;;1.85;;
69981;SDS011;57319;56.274;43.980;2023-06-19T07:50:00;7.72;;;1.42;;
69981;SDS011;57319;56.274;43.980;2023-06-19T07:52:25;2.85;;;1.00;;
69981;SDS011;57319;56.274;43.980;2023-06-19T07:54:52;1.58;;;1.10;;
69981;SDS011;57319;56.274;43.980;2023-06-19T07:57:22;1.75;;;1.27;;
69981;SDS011;57319;56.274;43.980;2023-06-19T07:59:49;19.98;;;2.10;;
69981;SDS011;57319;56.274;43.980;2023-06-19T08:02:15;9.73;;;1.17;;
69981;SDS011;57319;56.274;43.980;2023-06-19T08:04:41;2.10;;;1.27;;
69981;SDS011;57319;56.274;43.980;2023-06-19T08:07:07;1.20;;;1.20;;
69981;SDS011;57319;56.274;43.980;2023-06-19T08:09:33;4.85;;;1.38;;
69981;SDS011;57319;56.274;43.980;2023-06-19T08:11:59;4.13;;;1.38;;
69981;SDS011;57319;56.274;43.980;2023-06-19T08:14:24;19.80;;;2.25;;
69981;SDS011;57319;56.274;43.980;2023-06-19T08:16:50;3.88;;;1.33;;
69981;SDS011;57319;56.274;43.980;2023-06-19T08:19:16;4.80;;;1.30;;
69981;SDS011;57319;56.274;43.980;2023-06-19T08:21:41;6.60;;;1.75;;
69981;SDS011;57319;56.274;43.980;2023-06-19T08:24:07;4.65;;;1.27;;
69981;SDS011;57319;56.274;43.980;2023-06-19T08:26:33;1.08;;;1.08;;
69981;SDS011;57319;56.274;43.980;2023-06-19T08:28:58;1.02;;;1.02;;
69981;SDS011;57319;56.274;43.980;2023-06-19T08:31:24;2.65;;;1.33;;
69981;SDS011;57319;56.274;43.980;2023-06-19T08:33:53;1.27;;;1.17;;
69981;SDS011;57319;56.274;43.980;2023-06-19T08:36:22;1.05;;;1.05;;
69981;SDS011;57319;56.274;43.980;2023-06-19T08:38:48;3.03;;;1.17;;
69981;SDS011;57319;56.274;43.980;2023-06-19T08:41:16;4.50;;;1.40;;
69981;SDS011;57319;56.274;43.980;2023-06-19T08:43:45;4.10;;;1.55;;
69981;SDS011;57319;56.274;43.980;2023-06-19T08:46:14;7.22;;;1.50;;
69981;SDS011;57319;56.274;43.980;2023-06-19T08:48:41;12.43;;;1.27;;
69981;SDS011;57319;56.274;43.980;2023-06-19T08:51:07;2.70;;;1.52;;
69981;SDS011;57319;56.274;43.980;2023-06-19T08:53:36;17.60;;;1.98;;
69981;SDS011;57319;56.274;43.980;2023-06-19T08:56:10;4.45;;;1.30;;
69981;SDS011;57319;56.274;43.980;2023-06-19T08:58:36;1.70;;;1.08;;
69981;SDS011;57319;56.274;43.980;2023-06-19T09:01:02;7.35;;;1.50;;
69981;SDS011;57319;56.274;43.980;2023-06-19T09:03:28;4.63;;;1.38;;
69981;SDS011;57319;56.274;43.980;2023-06-19T09:05:54;6.47;;;1.13;;
69981;SDS011;57319;56.274;43.980;2023-06-19T09:08:20;3.70;;;1.25;;
69981;SDS011;57319;56.274;43.980;2023-06-19T09:13:29;6.90;;;1.70;;
69981;SDS011;57319;56.274;43.980;2023-06-19T09:16:06;5.88;;;1.10;;
69981;SDS011;57319;56.274;43.980;2023-06-19T09:18:46;4.53;;;1.73;;
69981;SDS011;57319;56.274;43.980;2023-06-19T09:21:20;5.47;;;1.50;;
69981;SDS011;57319;56.274;43.980;2023-06-19T09:23:50;0.98;;;0.98;;
69981;SDS011;57319;56.274;43.980;2023-06-19T09:26:17;1.83;;;1.13;;
69981;SDS011;57319;56.274;43.980;2023-06-19T09:28:44;4.85;;;1.10;;
69981;SDS011;57319;56.274;43.980;2023-06-19T09:31:10;3.00;;;1.10;;
69981;SDS011;57319;56.274;43.980;2023-06-19T09:33:38;1.25;;;1.15;;
69981;SDS011;57319;56.274;43.980;2023-06-19T09:36:05;1.88;;;1.30;;
69981;SDS011;57319;56.274;43.980;2023-06-19T09:38:32;2.72;;;1.20;;
69981;SDS011;57319;56.274;43.980;2023-06-19T09:41:02;4.45;;;1.20;;
69981;SDS011;57319;56.274;43.980;2023-06-19T09:43:30;4.00;;;1.25;;
69981;SDS011;57319;56.274;43.980;2023-06-19T09:46:02;5.85;;;1.50;;
69981;SDS011;57319;56.274;43.980;2023-06-19T09:48:30;1.27;;;1.17;;
69981;SDS011;57319;56.274;43.980;2023-06-19T09:51:06;1.77;;;1.67;;
69981;SDS011;57319;56.274;43.980;2023-06-19T09:53:32;1.50;;;1.10;;
69981;SDS011;57319;56.274;43.980;2023-06-19T09:55:59;8.90;;;1.40;;
69981;SDS011;57319;56.274;43.980;2023-06-19T09:58:26;3.42;;;1.42;;
69981;SDS011;57319;56.274;43.980;2023-06-19T10:00:53;1.35;;;1.25;;
69981;SDS011;57319;56.274;43.980;2023-06-19T10:03:20;1.65;;;1.33;;
69981;SDS011;57319;56.274;43.980;2023-06-19T10:05:46;1.98;;;1.38;;
69981;SDS011;57319;56.274;43.980;2023-06-19T10:08:12;6.55;;;1.17;;
69981;SDS011;57319;56.274;43.980;2023-06-19T10:10:45;2.78;;;1.45;;
69981;SDS011;57319;56.274;43.980;2023-06-19T10:13:14;3.05;;;1.23;;
69981;SDS011;57319;56.274;43.980;2023-06-19T10:15:42;4.22;;;1.40;;
69981;SDS011;57319;56.274;43.980;2023-06-19T10:18:16;2.38;;;1.08;;
69981;SDS011;57319;56.274;43.980;2023-06-19T10:20:43;1.70;;;1.20;;
69981;SDS011;57319;56.274;43.980;2023-06-19T10:23:11;1.02;;;1.02;;
69981;SDS011;57319;56.274;43.980;2023-06-19T10:28:22;3.40;;;1.20;;
69981;SDS011;57319;56.274;43.980;2023-06-19T10:31:00;3.58;;;1.67;;
69981;SDS011;57319;56.274;43.980;2023-06-19T10:33:28;4.05;;;1.20;;
69981;SDS011;57319;56.274;43.980;2023-06-19T10:35:57;1.17;;;1.17;;
69981;SDS011;57319;56.274;43.980;2023-06-19T10:38:25;1.10;;;1.10;;
69981;SDS011;57319;56.274;43.980;2023-06-19T10:40:51;2.47;;;1.27;;
69981;SDS011;57319;56.274;43.980;2023-06-19T10:43:23;4.78;;;1.33;;
69981;SDS011;57319;56.274;43.980;2023-06-19T10:45:53;1.13;;;1.10;;
69981;SDS011;57319;56.274;43.980;2023-06-19T10:48:20;4.13;;;1.30;;
69981;SDS011;57319;56.274;43.980;2023-06-19T10:50:48;1.45;;;1.45;;
69981;SDS011;57319;56.274;43.980;2023-06-19T10:53:28;2.42;;;1.10;;
69981;SDS011;57319;56.274;43.980;2023-06-19T10:55:57;1.25;;;1.25;;
69981;SDS011;57319;56.274;43.980;2023-06-19T10:58:24;2.10;;;1.00;;
69981;SDS011;57319;56.274;43.980;2023-06-19T11:00:50;1.17;;;1.17;;
69981;SDS011;57319;56.274;43.980;2023-06-19T11:03:16;2.05;;;1.40;;
69981;SDS011;57319;56.274;43.980;2023-06-19T11:05:45;1.13;;;1.13;;
69981;SDS011;57319;56.274;43.980;2023-06-19T11:08:19;1.25;;;1.20;;
69981;SDS011;57319;56.274;43.980;2023-06-19T11:10:49;1.10;;;1.10;;
69981;SDS011;57319;56.274;43.980;2023-06-19T11:13:16;1.98;;;1.20;;
69981;SDS011;57319;56.274;43.980;2023-06-19T11:15:44;2.47;;;1.75;;
69981;SDS011;57319;56.274;43.980;2023-06-19T11:18:14;5.35;;;1.60;;
69981;SDS011;57319;56.274;43.980;2023-06-19T11:20:44;11.93;;;1.50;;
69981;SDS011;57319;56.274;43.980;2023-06-19T11:23:16;6.13;;;1.60;;
69981;SDS011;57319;56.274;43.980;2023-06-19T11:25:43;7.10;;;1.35;;
69981;SDS011;57319;56.274;43.980;2023-06-19T11:28:12;3.80;;;1.30;;
69981;SDS011;57319;56.274;43.980;2023-06-19T11:30:39;3.53;;;1.08;;
69981;SDS011;57319;56.274;43.980;2023-06-19T11:33:20;2.40;;;2.30;;
69981;SDS011;57319;56.274;43.980;2023-06-19T11:35:52;2.78;;;1.30;;
69981;SDS011;57319;56.274;43.980;2023-06-19T11:38:23;2.67;;;1.33;;
69981;SDS011;57319;56.274;43.980;2023-06-19T11:40:50;2.08;;;1.58;;
69981;SDS011;57319;56.274;43.980;2023-06-19T11:43:25;3.40;;;1.30;;
69981;SDS011;57319;56.274;43.980;2023-06-19T11:45:52;1.55;;;1.20;;
69981;SDS011;57319;56.274;43.980;2023-06-19T11:48:22;2.42;;;1.05;;
69981;SDS011;57319;56.274;43.980;2023-06-19T11:50:48;1.52;;;1.50;;
69981;SDS011;57319;56.274;43.980;2023-06-19T11:53:14;5.38;;;1.20;;
69981;SDS011;57319;56.274;43.980;2023-06-19T11:55:39;3.17;;;1.50;;
69981;SDS011;57319;56.274;43.980;2023-06-19T11:58:05;7.57;;;1.90;;
69981;SDS011;57319;56.274;43.980;2023-06-19T12:00:31;3.53;;;1.42;;
69981;SDS011;57319;56.274;43.980;2023-06-19T12:02:56;3.42;;;1.45;;
69981;SDS011;57319;56.274;43.980;2023-06-19T12:05:23;4.90;;;1.52;;
69981;SDS011;57319;56.274;43.980;2023-06-19T12:07:49;1.63;;;1.38;;
69981;SDS011;57319;56.274;43.980;2023-06-19T12:10:15;3.50;;;1.67;;
69981;SDS011;57319;56.274;43.980;2023-06-19T12:12:41;8.23;;;2.15;;
69981;SDS011;57319;56.274;43.980;2023-06-19T12:15:07;4.60;;;1.70;;
69981;SDS011;57319;56.274;43.980;2023-06-19T12:17:33;3.95;;;1.80;;
69981;SDS011;57319;56.274;43.980;2023-06-19T12:19:59;2.25;;;1.33;;
69981;SDS011;57319;56.274;43.980;2023-06-19T12:22:26;6.50;;;1.45;;
69981;SDS011;57319;56.274;43.980;2023-06-19T12:24:52;5.57;;;1.40;;
69981;SDS011;57319;56.274;43.980;2023-06-19T12:27:18;7.97;;;1.92;;
69981;SDS011;57319;56.274;43.980;2023-06-19T12:29:44;1.50;;;1.40;;
69981;SDS011;57319;56.274;43.980;2023-06-19T12:32:09;4.30;;;1.25;;
69981;SDS011;57319;56.274;43.980;2023-06-19T12:34:35;3.25;;;1.48;;
69981;SDS011;57319;56.274;43.980;2023-06-19T12:37:01;1.30;;;1.20;;
69981;SDS011;57319;56.274;43.980;2023-06-19T12:39:27;1.67;;;1.30;;
69981;SDS011;57319;56.274;43.980;2023-06-19T12:41:52;3.75;;;1.55;;
69981;SDS011;57319;56.274;43.980;2023-06-19T12:44:19;2.45;;;1.40;;
69981;SDS011;57319;56.274;43.980;2023-06-19T12:46:46;8.05;;;1.70;;
69981;SDS011;57319;56.274;43.980;2023-06-19T12:49:12;2.05;;;1.40;;
69981;SDS011;57319;56.274;43.980;2023-06-19T12:51:38;3.22;;;1.67;;
69981;SDS011;57319;56.274;43.980;2023-06-19T12:54:03;4.28;;;1.58;;
69981;SDS011;57319;56.274;43.980;2023-06-19T12:56:29;5.03;;;1.65;;
69981;SDS011;57319;56.274;43.980;2023-06-19T12:58:55;4.40;;;1.42;;
69981;SDS011;57319;56.274;43.980;2023-06-19T13:01:20;6.85;;;1.40;;
69981;SDS011;57319;56.274;43.980;2023-06-19T13:03:46;1.75;;;1.65;;
69981;SDS011;57319;56.274;43.980;2023-06-19T13:06:12;12.65;;;2.78;;
69981;SDS011;57319;56.274;43.980;2023-06-19T13:08:38;1.42;;;1.40;;
69981;SDS011;57319;56.274;43.980;2023-06-19T13:11:03;1.67;;;1.58;;
69981;SDS011;57319;56.274;43.980;2023-06-19T13:13:29;3.35;;;1.33;;
69981;SDS011;57319;56.274;43.980;2023-06-19T13:15:55;4.72;;;1.83;;
69981;SDS011;57319;56.274;43.980;2023-06-19T13:18:21;4.63;;;1.30;;
69981;SDS011;57319;56.274;43.980;2023-06-19T13:20:46;1.75;;;1.42;;
69981;SDS011;57319;56.274;43.980;2023-06-19T13:23:13;2.40;;;1.58;;
69981;SDS011;57319;56.274;43.980;2023-06-19T13:25:40;4.53;;;1.42;;
69981;SDS011;57319;56.274;43.980;2023-06-19T13:28:05;10.20;;;1.70;;
69981;SDS011;57319;56.274;43.980;2023-06-19T13:30:31;3.45;;;1.60;;
69981;SDS011;57319;56.274;43.980;2023-06-19T13:32:57;3.33;;;1.52;;
69981;SDS011;57319;56.274;43.980;2023-06-19T13:35:23;15.57;;;1.90;;
69981;SDS011;57319;56.274;43.980;2023-06-19T13:37:49;8.70;;;1.40;;
69981;SDS011;57319;56.274;43.980;2023-06-19T13:40:14;11.38;;;1.80;;
69981;SDS011;57319;56.274;43.980;2023-06-19T13:42:40;5.65;;;1.42;;
69981;SDS011;57319;56.274;43.980;2023-06-19T13:45:06;1.85;;;1.70;;
69981;SDS011;57319;56.274;43.980;2023-06-19T13:47:32;5.25;;;1.83;;
69981;SDS011;57319;56.274;43.980;2023-06-19T13:49:58;1.50;;;1.30;;
69981;SDS011;57319;56.274;43.980;2023-06-19T13:52:23;9.07;;;1.50;;
69981;SDS011;57319;56.274;43.980;2023-06-19T13:54:49;7.38;;;1.80;;
69981;SDS011;57319;56.274;43.980;2023-06-19T13:57:16;1.52;;;1.42;;
69981;SDS011;57319;56.274;43.980;2023-06-19T13:59:41;8.80;;;1.35;;
69981;SDS011;57319;56.274;43.980;2023-06-19T14:02:08;3.42;;;1.63;;
69981;SDS011;57319;56.274;43.980;2023-06-19T14:04:35;2.38;;;1.38;;
69981;SDS011;57319;56.274;43.980;2023-06-19T14:07:01;9.07;;;1.60;;
69981;SDS011;57319;56.274;43.980;2023-06-19T14:09:27;9.00;;;1.60;;
69981;SDS011;57319;56.274;43.980;2023-06-19T14:11:52;7.90;;;1.60;;
69981;SDS011;57319;56.274;43.980;2023-06-19T14:14:18;4.18;;;1.60;;
69981;SDS011;57319;56.274;43.980;2023-06-19T14:16:44;2.20;;;2.00;;
69981;SDS011;57319;56.274;43.980;2023-06-19T14:19:09;7.05;;;1.50;;
69981;SDS011;57319;56.274;43.980;2023-06-19T14:21:35;2.67;;;1.55;;
69981;SDS011;57319;56.274;43.980;2023-06-19T14:24:01;4.07;;;1.50;;
69981;SDS011;57319;56.274;43.980;2023-06-19T14:26:26;9.55;;;1.63;;
69981;SDS011;57319;56.274;43.980;2023-06-19T14:28:52;1.33;;;1.23;;
69981;SDS011;57319;56.274;43.980;2023-06-19T14:31:23;6.35;;;1.70;;
69981;SDS011;57319;56.274;43.980;2023-06-19T14:33:49;7.60;;;1.55;;
69981;SDS011;57319;56.274;43.980;2023-06-19T14:36:15;11.57;;;1.80;;
69981;SDS011;57319;56.274;43.980;2023-06-19T14:38:41;7.38;;;1.67;;
69981;SDS011;57319;56.274;43.980;2023-06-19T14:41:06;4.10;;;1.85;;
69981;SDS011;57319;56.274;43.980;2023-06-19T14:43:32;3.50;;;1.33;;